Time;durP1;ratioP1;P1;durP2;ratioP2;P2;SDS_P1;SDS_P2;PMS_P1;PMS_P2;Temp;Humidity;BMP_temperature;BMP_pressure;BME280_temperature;BME280_humidity;BME280_pressure;Samples;Min_cycle;Max_cycle;Signal;HPM_P1;HPM_P2
2024/02/06 00:00:12;;;;;;;15.33;7.00;;;9.70;96.30;;;;;;783692;181;26445;-78
2024/02/06 00:02:42;;;;;;;15.63;8.47;;;9.80;96.30;;;;;;781199;181;26468;-77
2024/02/06 00:05:09;;;;;;;29.70;12.90;;;9.80;96.30;;;;;;782535;181;26476;-78
2024/02/06 00:07:35;;;;;;;28.50;12.53;;;9.80;96.20;;;;;;782875;181;26460;-78
2024/02/06 00:10:02;;;;;;;14.97;7.20;;;9.80;96.20;;;;;;785981;174;26542;-79
2024/02/06 00:12:29;;;;;;;10.43;5.10;;;9.80;96.50;;;;;;786236;180;26491;-78
2024/02/06 00:14:56;;;;;;;14.33;5.53;;;9.80;96.20;;;;;;786805;180;26467;-78
2024/02/06 00:17:22;;;;;;;17.73;7.20;;;9.80;96.10;;;;;;785828;181;26477;-79
2024/02/06 00:19:49;;;;;;;24.23;11.63;;;9.80;96.10;;;;;;784721;182;26633;-79
2024/02/06 00:22:16;;;;;;;41.80;17.03;;;9.80;95.90;;;;;;784229;178;26507;-80
2024/02/06 00:24:42;;;;;;;37.23;16.43;;;9.80;95.80;;;;;;784129;176;26466;-80
2024/02/06 00:27:09;;;;;;;16.90;5.63;;;9.90;95.60;;;;;;785576;178;26442;-80
2024/02/06 00:29:36;;;;;;;13.03;5.43;;;9.90;95.70;;;;;;781741;177;26482;-78
2024/02/06 00:32:03;;;;;;;10.83;4.47;;;9.90;95.50;;;;;;784057;179;26471;-79
2024/02/06 00:34:29;;;;;;;10.90;5.43;;;10.00;94.80;;;;;;783096;180;26454;-78
2024/02/06 00:36:55;;;;;;;14.07;4.97;;;10.00;94.60;;;;;;781955;183;26438;-77
2024/02/06 00:39:22;;;;;;;8.10;4.10;;;10.00;94.40;;;;;;783123;182;26471;-79
2024/02/06 00:41:49;;;;;;;9.13;4.50;;;10.10;94.20;;;;;;781701;181;26446;-78
2024/02/06 00:44:17;;;;;;;14.57;6.73;;;10.10;94.00;;;;;;781990;183;26438;-79
2024/02/06 00:46:42;;;;;;;16.43;6.60;;;10.10;94.00;;;;;;782281;183;26437;-78
2024/02/06 00:49:08;;;;;;;15.77;8.27;;;10.10;93.90;;;;;;783161;182;26468;-79
2024/02/06 00:51:35;;;;;;;11.30;5.07;;;10.20;93.70;;;;;;783304;181;26409;-80
2024/02/06 00:54:03;;;;;;;13.23;6.03;;;10.20;93.80;;;;;;783852;183;26629;-80
2024/02/06 00:56:28;;;;;;;16.20;5.37;;;10.20;93.50;;;;;;784158;183;26433;-80
2024/02/06 00:58:55;;;;;;;10.20;5.00;;;10.20;93.50;;;;;;783160;181;26509;-80
2024/02/06 01:01:22;;;;;;;8.67;4.20;;;10.30;93.20;;;;;;783873;179;26446;-79
2024/02/06 01:03:48;;;;;;;11.03;3.97;;;10.30;93.10;;;;;;783131;181;26440;-80
2024/02/06 01:06:15;;;;;;;10.10;4.83;;;10.30;93.10;;;;;;786250;182;26438;-80
2024/02/06 01:08:41;;;;;;;14.83;4.93;;;10.30;93.00;;;;;;784843;181;26461;-79
2024/02/06 01:11:08;;;;;;;11.70;4.80;;;10.30;93.00;;;;;;784076;182;26457;-79
2024/02/06 01:13:35;;;;;;;13.60;5.53;;;10.30;93.00;;;;;;784948;183;26434;-79
2024/02/06 01:16:03;;;;;;;12.80;5.27;;;10.30;93.10;;;;;;784782;178;26976;-78
2024/02/06 01:18:28;;;;;;;11.67;5.03;;;10.30;93.20;;;;;;784948;180;26447;-79
2024/02/06 01:20:54;;;;;;;10.83;4.73;;;10.30;93.10;;;;;;783039;179;26442;-79
2024/02/06 01:23:21;;;;;;;13.67;6.60;;;10.30;93.20;;;;;;782796;179;26458;-79
2024/02/06 01:25:47;;;;;;;12.00;4.60;;;10.30;93.30;;;;;;782974;181;26501;-78
2024/02/06 01:28:14;;;;;;;11.90;5.33;;;10.30;93.50;;;;;;782204;182;26466;-79
2024/02/06 01:30:41;;;;;;;10.47;5.00;;;10.30;93.50;;;;;;782005;183;26438;-80
2024/02/06 01:33:07;;;;;;;9.73;4.10;;;10.30;93.50;;;;;;781980;183;26887;-79
2024/02/06 01:35:34;;;;;;;10.73;4.67;;;10.30;93.50;;;;;;781746;182;26448;-79
2024/02/06 01:38:00;;;;;;;9.33;4.73;;;10.30;93.70;;;;;;783838;182;26454;-79
2024/02/06 01:40:27;;;;;;;9.90;4.77;;;10.20;93.70;;;;;;782313;182;26454;-80
2024/02/06 01:42:54;;;;;;;6.53;4.03;;;10.20;93.80;;;;;;781692;179;26987;-80
2024/02/06 01:45:20;;;;;;;10.77;4.37;;;10.30;93.70;;;;;;782135;183;26457;-80
2024/02/06 01:47:47;;;;;;;11.83;4.73;;;10.30;93.80;;;;;;782135;183;26438;-80
2024/02/06 01:50:13;;;;;;;6.30;3.77;;;10.30;93.90;;;;;;782617;182;26466;-79
2024/02/06 01:52:40;;;;;;;9.23;4.83;;;10.30;93.80;;;;;;782770;184;26446;-80
2024/02/06 01:55:08;;;;;;;9.73;4.73;;;10.30;93.90;;;;;;782509;183;26458;-78
2024/02/06 01:57:35;;;;;;;8.63;4.27;;;10.30;93.80;;;;;;782738;179;26447;-78
2024/02/06 02:00:00;;;;;;;14.87;5.80;;;10.30;93.80;;;;;;782760;182;26472;-79
2024/02/06 02:02:26;;;;;;;8.50;5.20;;;10.30;93.80;;;;;;791467;180;26491;-79
2024/02/06 02:04:53;;;;;;;10.30;5.10;;;10.30;93.80;;;;;;798456;180;26433;-80
2024/02/06 02:07:20;;;;;;;10.73;5.33;;;10.30;93.70;;;;;;783622;180;26429;-80
2024/02/06 02:09:46;;;;;;;9.27;4.63;;;10.30;93.80;;;;;;789789;180;26691;-79
2024/02/06 02:12:13;;;;;;;13.00;5.60;;;10.30;93.70;;;;;;777547;185;26458;-80
2024/02/06 02:14:39;;;;;;;12.13;4.83;;;10.30;94.00;;;;;;811475;176;26403;-80
2024/02/06 02:17:06;;;;;;;10.10;4.43;;;10.30;93.80;;;;;;785247;181;28068;-80
2024/02/06 02:19:32;;;;;;;12.77;5.30;;;10.30;93.30;;;;;;784467;182;26476;-79
2024/02/06 02:21:59;;;;;;;6.40;4.27;;;10.30;93.50;;;;;;785918;182;28974;-79
2024/02/06 02:24:26;;;;;;;14.17;5.23;;;10.30;93.30;;;;;;809833;176;26424;-81
2024/02/06 02:26:52;;;;;;;13.17;5.00;;;10.30;93.00;;;;;;811328;176;26965;-79
2024/02/06 02:29:19;;;;;;;10.50;4.87;;;10.30;93.10;;;;;;783396;184;26466;-80
2024/02/06 02:31:46;;;;;;;10.57;4.73;;;10.40;93.10;;;;;;776575;185;26498;-79
2024/02/06 02:34:12;;;;;;;8.90;4.60;;;10.40;92.70;;;;;;810819;176;26404;-80
2024/02/06 02:36:39;;;;;;;11.57;5.17;;;10.40;92.50;;;;;;782379;184;26430;-80
2024/02/06 02:39:06;;;;;;;9.40;4.27;;;10.40;92.40;;;;;;783084;183;26457;-79
2024/02/06 02:41:32;;;;;;;10.20;4.93;;;10.40;92.40;;;;;;782229;183;26445;-79
2024/02/06 02:43:58;;;;;;;10.10;3.63;;;10.50;92.70;;;;;;784152;176;27091;-79
2024/02/06 02:46:25;;;;;;;10.80;4.33;;;10.50;92.00;;;;;;784225;178;26498;-80
2024/02/06 02:48:52;;;;;;;15.17;5.07;;;10.50;92.50;;;;;;808686;174;27202;-80
2024/02/06 02:51:18;;;;;;;12.80;4.10;;;10.50;91.90;;;;;;783738;178;26431;-79
2024/02/06 02:53:45;;;;;;;8.13;4.00;;;10.50;91.80;;;;;;784057;183;26939;-78
2024/02/06 02:56:11;;;;;;;9.93;4.40;;;10.60;91.60;;;;;;810636;176;26450;-78
2024/02/06 02:58:38;;;;;;;7.67;3.50;;;10.50;92.00;;;;;;808864;176;26586;-77
2024/02/06 03:01:05;;;;;;;13.90;4.90;;;10.60;91.60;;;;;;791569;180;26527;-79
2024/02/06 03:03:31;;;;;;;8.97;4.00;;;10.60;91.40;;;;;;781336;184;26471;-79
2024/02/06 03:05:58;;;;;;;12.67;4.20;;;10.60;91.40;;;;;;789329;180;26415;-79
2024/02/06 03:08:24;;;;;;;23.00;3.47;;;10.70;91.50;;;;;;789496;180;26425;-78
2024/02/06 03:10:51;;;;;;;13.53;4.83;;;10.70;91.30;;;;;;787509;180;26567;-78
2024/02/06 03:13:18;;;;;;;11.43;4.30;;;10.70;91.20;;;;;;807468;176;26425;-79
2024/02/06 03:15:44;;;;;;;7.63;3.90;;;10.70;91.40;;;;;;781214;184;26446;-78
2024/02/06 03:18:11;;;;;;;10.97;3.97;;;10.70;91.20;;;;;;781375;184;26438;-79
2024/02/06 03:20:37;;;;;;;13.30;4.17;;;10.70;91.10;;;;;;781405;183;26626;-79
2024/02/06 03:23:04;;;;;;;12.77;3.87;;;10.80;91.60;;;;;;782304;181;26455;-80
2024/02/06 03:25:31;;;;;;;9.63;3.70;;;10.80;91.40;;;;;;777435;183;26439;-79
2024/02/06 03:27:57;;;;;;;11.57;3.97;;;10.80;91.10;;;;;;816190;173;26392;-79
2024/02/06 03:30:26;;;;;;;11.20;3.60;;;10.80;90.90;;;;;;814729;173;26428;-80
2024/02/06 03:32:50;;;;;;;10.80;3.00;;;10.80;91.00;;;;;;798046;174;26458;-79
2024/02/06 03:35:17;;;;;;;10.43;3.53;;;10.80;90.90;;;;;;808964;176;26427;-78
2024/02/06 03:37:44;;;;;;;6.10;2.73;;;10.80;91.00;;;;;;809563;176;26463;-78
2024/02/06 03:40:10;;;;;;;12.77;3.80;;;10.80;90.70;;;;;;809979;176;26477;-80
2024/02/06 03:42:37;;;;;;;8.20;3.10;;;10.80;91.10;;;;;;793295;180;26425;-78
2024/02/06 03:45:04;;;;;;;7.43;3.37;;;10.90;90.70;;;;;;790916;179;26428;-79
2024/02/06 03:47:31;;;;;;;11.97;4.17;;;10.90;90.50;;;;;;808665;176;26409;-79
2024/02/06 03:49:57;;;;;;;13.20;4.20;;;10.90;90.90;;;;;;795614;180;26448;-80
2024/02/06 03:52:24;;;;;;;13.10;3.70;;;10.90;90.60;;;;;;810740;176;26436;-80
2024/02/06 03:54:51;;;;;;;12.63;3.60;;;10.90;90.60;;;;;;809524;176;26415;-80
2024/02/06 03:57:17;;;;;;;14.70;3.40;;;11.00;90.60;;;;;;812386;176;26443;-80
2024/02/06 03:59:44;;;;;;;11.17;3.10;;;10.90;90.40;;;;;;809848;176;26424;-79
2024/02/06 04:02:10;;;;;;;11.20;4.30;;;10.90;90.60;;;;;;815629;176;26532;-79
2024/02/06 04:04:38;;;;;;;14.63;3.90;;;11.00;90.80;;;;;;782951;180;26597;-79
2024/02/06 04:07:04;;;;;;;13.93;4.20;;;10.90;90.70;;;;;;789519;181;26440;-80
2024/02/06 04:09:30;;;;;;;4.87;2.77;;;10.90;90.70;;;;;;812100;176;26431;-80
2024/02/06 04:11:57;;;;;;;12.77;3.80;;;11.00;90.60;;;;;;793567;180;26958;-80
2024/02/06 04:14:23;;;;;;;13.40;4.03;;;11.00;90.60;;;;;;784179;182;26447;-80
2024/02/06 04:16:54;;;;;;;8.67;3.63;;;11.00;90.70;;;;;;789747;180;26434;-79
2024/02/06 04:19:17;;;;;;;10.53;3.60;;;11.00;90.80;;;;;;785266;183;26483;-79
2024/02/06 04:21:44;;;;;;;9.13;3.13;;;11.00;90.70;;;;;;792765;180;26495;-79
2024/02/06 04:24:10;;;;;;;9.17;3.37;;;11.00;90.60;;;;;;789548;180;26559;-79
2024/02/06 04:26:36;;;;;;;9.43;3.70;;;11.00;90.60;;;;;;791498;180;26478;-79
2024/02/06 04:29:03;;;;;;;8.63;3.30;;;11.00;90.70;;;;;;777739;182;27047;-80
2024/02/06 04:31:30;;;;;;;12.33;4.27;;;11.00;90.80;;;;;;774710;182;26458;-80
2024/02/06 04:33:56;;;;;;;8.20;3.57;;;11.00;90.70;;;;;;780843;180;26458;-79
2024/02/06 04:36:23;;;;;;;10.97;3.70;;;11.00;90.70;;;;;;788326;180;26449;-80
2024/02/06 04:38:50;;;;;;;10.53;3.73;;;11.00;90.80;;;;;;810497;175;26459;-78
2024/02/06 04:41:16;;;;;;;10.47;3.87;;;11.00;91.00;;;;;;813540;176;26426;-79
2024/02/06 04:43:43;;;;;;;12.60;4.60;;;11.00;90.90;;;;;;794252;179;26994;-78
2024/02/06 04:46:10;;;;;;;14.07;4.23;;;11.00;90.90;;;;;;785684;183;26433;-79
2024/02/06 04:48:36;;;;;;;9.60;3.97;;;11.00;91.00;;;;;;782117;183;27041;-78
2024/02/06 04:51:03;;;;;;;9.60;3.57;;;10.90;91.20;;;;;;788930;180;26454;-79
2024/02/06 04:53:31;;;;;;;10.40;3.67;;;10.90;91.10;;;;;;782674;181;26423;-80
2024/02/06 04:55:56;;;;;;;6.97;2.97;;;10.90;91.40;;;;;;782169;182;26463;-78
2024/02/06 04:58:22;;;;;;;8.37;3.87;;;10.90;91.00;;;;;;791723;178;26433;-79
2024/02/06 05:00:49;;;;;;;8.70;4.03;;;10.90;91.10;;;;;;812238;176;26432;-78
2024/02/06 05:03:16;;;;;;;13.67;5.57;;;11.00;91.20;;;;;;792252;180;26424;-79
2024/02/06 05:05:42;;;;;;;8.10;4.07;;;11.00;91.30;;;;;;812512;172;26395;-78
2024/02/06 05:08:09;;;;;;;10.53;3.57;;;11.00;91.10;;;;;;813573;171;26408;-80
2024/02/06 05:10:35;;;;;;;12.33;4.20;;;11.00;91.20;;;;;;810683;174;26428;-79
2024/02/06 05:13:02;;;;;;;8.80;3.50;;;11.00;91.10;;;;;;781868;180;26463;-79
2024/02/06 05:15:29;;;;;;;12.20;4.27;;;10.90;91.40;;;;;;808141;176;26409;-78
2024/02/06 05:17:55;;;;;;;7.80;3.77;;;11.00;91.40;;;;;;781985;184;26447;-79
2024/02/06 05:20:22;;;;;;;10.13;3.60;;;11.00;91.20;;;;;;781954;183;26490;-78
2024/02/06 05:22:48;;;;;;;8.70;4.20;;;11.00;91.00;;;;;;782165;183;26446;-78
2024/02/06 05:25:15;;;;;;;13.47;4.00;;;11.00;91.10;;;;;;790079;181;26455;-79
2024/02/06 05:27:42;;;;;;;10.80;3.90;;;11.00;91.20;;;;;;809849;176;26400;-78
2024/02/06 05:30:09;;;;;;;11.20;4.30;;;11.00;91.10;;;;;;791689;180;26435;-79
2024/02/06 05:32:35;;;;;;;10.33;3.90;;;11.00;91.00;;;;;;783600;183;26449;-76
2024/02/06 05:35:02;;;;;;;10.90;4.10;;;11.10;91.20;;;;;;784381;183;27016;-78
2024/02/06 05:37:29;;;;;;;8.47;3.87;;;11.20;91.40;;;;;;792253;180;27016;-80
2024/02/06 05:39:55;;;;;;;7.23;3.63;;;11.10;90.90;;;;;;791138;180;26453;-79
2024/02/06 05:42:22;;;;;;;8.23;3.90;;;11.10;91.10;;;;;;789229;180;26487;-79
2024/02/06 05:44:49;;;;;;;9.80;4.10;;;11.00;91.40;;;;;;789351;180;26441;-79
2024/02/06 05:47:16;;;;;;;7.93;3.43;;;11.00;91.20;;;;;;783893;180;26437;-79
2024/02/06 05:49:42;;;;;;;12.10;4.10;;;11.00;91.50;;;;;;786758;180;26475;-79
2024/02/06 05:52:08;;;;;;;13.53;4.70;;;11.00;91.50;;;;;;787161;178;26475;-80
2024/02/06 05:54:35;;;;;;;10.53;4.10;;;11.00;91.40;;;;;;789521;180;26513;-79
2024/02/06 05:57:01;;;;;;;11.33;3.93;;;11.10;91.40;;;;;;796899;179;26451;-78
2024/02/06 05:59:28;;;;;;;14.10;4.63;;;11.10;91.40;;;;;;788273;180;27110;-79
2024/02/06 06:01:55;;;;;;;14.37;4.60;;;11.10;91.60;;;;;;814837;176;26400;-79
2024/02/06 06:04:21;;;;;;;11.50;4.33;;;11.10;91.60;;;;;;809662;176;26437;-79
2024/02/06 06:06:48;;;;;;;13.97;4.47;;;11.00;91.70;;;;;;810877;176;26443;-79
2024/02/06 06:09:14;;;;;;;12.97;4.47;;;11.00;91.90;;;;;;782468;180;26465;-78
2024/02/06 06:11:41;;;;;;;12.70;4.93;;;11.10;91.60;;;;;;812186;175;26397;-78
2024/02/06 06:14:08;;;;;;;10.73;4.77;;;11.00;91.60;;;;;;810877;176;26423;-79
2024/02/06 06:16:34;;;;;;;11.17;4.30;;;11.00;91.80;;;;;;798912;171;26460;-76
2024/02/06 06:19:02;;;;;;;15.07;4.83;;;11.00;91.60;;;;;;775738;183;26988;-76
2024/02/06 06:21:29;;;;;;;10.87;4.30;;;11.00;92.00;;;;;;796270;179;26465;-77
2024/02/06 06:23:55;;;;;;;13.93;4.30;;;11.00;92.00;;;;;;794366;178;26427;-78
2024/02/06 06:26:24;;;;;;;15.23;5.40;;;11.00;91.90;;;;;;807828;175;26505;-77
2024/02/06 06:28:50;;;;;;;12.10;5.10;;;11.00;92.00;;;;;;809519;172;26463;-76
2024/02/06 06:31:18;;;;;;;8.17;4.17;;;11.00;92.10;;;;;;810943;176;26437;-78
2024/02/06 06:33:45;;;;;;;8.57;4.37;;;11.00;91.90;;;;;;804161;176;27014;-76
2024/02/06 06:36:12;;;;;;;13.50;5.07;;;11.10;91.70;;;;;;804606;176;26431;-77
2024/02/06 06:38:38;;;;;;;10.87;4.83;;;11.10;92.00;;;;;;805739;178;26980;-78
2024/02/06 06:41:05;;;;;;;13.97;4.93;;;11.10;91.70;;;;;;808026;177;27006;-77
2024/02/06 06:43:32;;;;;;;15.97;5.27;;;11.10;91.90;;;;;;808028;178;26953;-76
2024/02/06 06:45:58;;;;;;;10.87;5.00;;;11.00;92.10;;;;;;807687;174;26425;-77
2024/02/06 06:48:27;;;;;;;13.33;5.20;;;11.00;92.20;;;;;;804845;178;26478;-77
2024/02/06 06:50:52;;;;;;;9.13;4.80;;;11.00;92.30;;;;;;800885;177;26990;-78
2024/02/06 06:53:19;;;;;;;12.30;4.77;;;11.00;92.00;;;;;;800341;178;26543;-76
2024/02/06 06:55:46;;;;;;;13.63;4.50;;;11.10;92.20;;;;;;800482;179;26499;-76
2024/02/06 06:58:14;;;;;;;17.30;5.23;;;11.10;91.90;;;;;;803841;178;26466;-77
2024/02/06 07:00:42;;;;;;;14.27;5.63;;;11.10;92.30;;;;;;804145;178;26455;-77
2024/02/06 07:03:09;;;;;;;12.27;5.13;;;11.10;92.00;;;;;;804887;176;26425;-76
2024/02/06 07:05:36;;;;;;;13.90;5.50;;;11.10;92.10;;;;;;807028;174;26450;-78
2024/02/06 07:08:03;;;;;;;13.83;4.47;;;11.10;92.20;;;;;;804097;177;26450;-78
2024/02/06 07:10:30;;;;;;;14.80;4.93;;;11.10;92.30;;;;;;806516;174;26471;-77
2024/02/06 07:12:57;;;;;;;14.50;4.73;;;11.20;92.10;;;;;;802934;176;26430;-77
2024/02/06 07:15:23;;;;;;;12.73;4.73;;;11.20;92.10;;;;;;802831;178;27010;-76
2024/02/06 07:17:50;;;;;;;16.13;5.10;;;11.20;92.00;;;;;;806094;178;26438;-77
2024/02/06 07:20:17;;;;;;;15.77;5.83;;;11.10;91.90;;;;;;806291;178;26442;-76
2024/02/06 07:22:44;;;;;;;9.77;4.60;;;11.20;92.10;;;;;;803355;178;26433;-78
2024/02/06 07:25:11;;;;;;;14.63;6.00;;;11.20;92.10;;;;;;804366;175;26435;-76
2024/02/06 07:27:38;;;;;;;17.67;5.67;;;11.20;92.10;;;;;;806124;178;26765;-78
2024/02/06 07:30:04;;;;;;;17.57;5.00;;;11.20;92.10;;;;;;803221;174;26444;-76
2024/02/06 07:32:31;;;;;;;12.17;4.83;;;11.20;92.10;;;;;;803812;176;27030;-76
2024/02/06 07:34:58;;;;;;;14.87;4.70;;;11.30;91.90;;;;;;803747;177;26464;-77
2024/02/06 07:37:24;;;;;;;16.97;5.50;;;11.30;91.90;;;;;;801453;178;26457;-77
2024/02/06 07:39:51;;;;;;;14.33;5.10;;;11.30;92.10;;;;;;800843;178;26453;-77
2024/02/06 07:42:17;;;;;;;16.33;5.50;;;11.30;91.90;;;;;;805126;178;26980;-78
2024/02/06 07:44:45;;;;;;;18.57;5.63;;;11.30;92.20;;;;;;803679;178;26519;-77
2024/02/06 07:47:11;;;;;;;16.70;5.37;;;11.30;92.20;;;;;;802741;178;26461;-76
2024/02/06 07:49:38;;;;;;;19.23;4.57;;;11.30;92.20;;;;;;804177;178;26992;-78
2024/02/06 07:52:05;;;;;;;13.70;5.40;;;11.30;92.40;;;;;;807198;178;26490;-77
2024/02/06 07:54:32;;;;;;;14.03;4.30;;;11.30;92.20;;;;;;801427;176;26455;-76
2024/02/06 07:56:58;;;;;;;9.00;3.17;;;11.40;91.90;;;;;;800235;178;26582;-77
2024/02/06 07:59:24;;;;;;;14.17;4.93;;;11.40;91.90;;;;;;799658;178;28095;-77
2024/02/06 08:01:51;;;;;;;14.83;5.43;;;11.40;91.60;;;;;;802069;175;26510;-77
2024/02/06 08:04:17;;;;;;;15.80;5.10;;;11.40;91.60;;;;;;801603;178;26429;-77
2024/02/06 08:06:44;;;;;;;15.83;5.50;;;11.40;91.70;;;;;;801537;175;26527;-77
2024/02/06 08:09:11;;;;;;;16.17;4.80;;;11.40;91.70;;;;;;801957;178;26470;-76
2024/02/06 08:11:37;;;;;;;16.97;6.00;;;11.50;91.60;;;;;;804034;178;26627;-78
2024/02/06 08:14:04;;;;;;;12.03;4.20;;;11.50;91.80;;;;;;803071;177;26458;-78
2024/02/06 08:16:30;;;;;;;8.10;4.20;;;11.50;91.70;;;;;;805198;173;27078;-78
2024/02/06 08:18:57;;;;;;;11.23;4.57;;;11.50;91.70;;;;;;807120;177;26437;-77
2024/02/06 08:21:24;;;;;;;9.00;4.10;;;11.50;91.70;;;;;;798116;180;26435;-77
2024/02/06 08:23:50;;;;;;;15.80;5.30;;;11.40;91.70;;;;;;807660;176;26405;-78
2024/02/06 08:26:17;;;;;;;13.67;5.07;;;11.50;91.70;;;;;;811707;172;26452;-78
2024/02/06 08:28:45;;;;;;;12.03;4.57;;;11.50;91.90;;;;;;811760;175;26427;-78
2024/02/06 08:31:10;;;;;;;8.67;4.17;;;11.50;91.70;;;;;;811445;177;26429;-78
2024/02/06 08:33:37;;;;;;;16.83;5.77;;;11.40;91.70;;;;;;811831;173;26465;-78
2024/02/06 08:36:03;;;;;;;12.87;4.80;;;11.50;92.00;;;;;;811727;173;26485;-78
2024/02/06 08:38:30;;;;;;;11.00;5.10;;;11.50;91.80;;;;;;809697;175;26454;-77
2024/02/06 08:40:57;;;;;;;8.87;4.53;;;11.50;91.80;;;;;;811295;175;26413;-77
2024/02/06 08:43:23;;;;;;;14.07;5.03;;;11.60;91.50;;;;;;811971;175;26418;-78
2024/02/06 08:45:50;;;;;;;11.97;4.60;;;11.60;91.40;;;;;;812471;172;27050;-77
2024/02/06 08:48:17;;;;;;;17.37;5.87;;;11.60;91.30;;;;;;809773;174;26442;-77
2024/02/06 08:50:44;;;;;;;12.40;4.37;;;11.60;91.60;;;;;;809411;175;26431;-78
2024/02/06 08:53:10;;;;;;;18.93;6.30;;;11.60;91.40;;;;;;810438;175;26417;-78
2024/02/06 08:55:36;;;;;;;10.27;4.03;;;11.60;91.60;;;;;;810538;175;26461;-78
2024/02/06 08:58:03;;;;;;;7.27;3.50;;;11.60;91.40;;;;;;810559;174;26451;-77
2024/02/06 09:00:30;;;;;;;19.77;5.57;;;11.60;91.60;;;;;;811467;176;26434;-77
2024/02/06 09:02:56;;;;;;;10.60;4.87;;;11.60;91.70;;;;;;809138;177;26972;-79
2024/02/06 09:05:23;;;;;;;10.50;4.80;;;11.60;91.50;;;;;;812154;174;26434;-79
2024/02/06 09:07:49;;;;;;;8.57;4.47;;;11.70;91.70;;;;;;810679;174;26437;-79
2024/02/06 09:10:16;;;;;;;17.67;6.63;;;11.60;91.70;;;;;;812028;177;26448;-77
2024/02/06 09:12:43;;;;;;;9.10;4.73;;;11.70;91.80;;;;;;811579;175;26455;-77
2024/02/06 09:15:09;;;;;;;12.47;5.20;;;11.70;91.80;;;;;;811475;177;26987;-78
2024/02/06 09:17:36;;;;;;;14.93;6.23;;;11.70;91.80;;;;;;809992;176;27055;-78
2024/02/06 09:20:03;;;;;;;11.00;5.60;;;11.80;91.60;;;;;;809826;177;26414;-78
2024/02/06 09:22:29;;;;;;;9.93;4.50;;;11.80;91.60;;;;;;809903;177;26419;-78
2024/02/06 09:24:56;;;;;;;12.07;4.97;;;11.80;91.50;;;;;;811224;175;26425;-78
2024/02/06 09:27:23;;;;;;;18.23;4.70;;;11.80;91.50;;;;;;814604;173;27208;-78
2024/02/06 09:29:49;;;;;;;19.67;9.50;;;11.80;91.50;;;;;;813626;174;26425;-78
2024/02/06 09:32:16;;;;;;;21.20;8.23;;;11.80;91.40;;;;;;815323;177;26421;-78
2024/02/06 09:34:42;;;;;;;7.47;4.50;;;11.80;91.50;;;;;;813073;174;26414;-78
2024/02/06 09:37:09;;;;;;;13.17;6.20;;;11.80;91.30;;;;;;812507;177;26622;-76
2024/02/06 09:39:36;;;;;;;10.47;5.30;;;11.80;91.30;;;;;;811244;174;26958;-77
2024/02/06 09:42:02;;;;;;;10.53;4.47;;;11.80;91.30;;;;;;812327;177;26441;-79
2024/02/06 09:44:29;;;;;;;13.97;5.10;;;11.80;91.30;;;;;;810651;175;26569;-78
2024/02/06 09:46:55;;;;;;;15.03;6.30;;;11.80;91.30;;;;;;810522;175;26469;-78
2024/02/06 09:49:22;;;;;;;32.47;13.30;;;11.80;91.40;;;;;;810455;177;27048;-78
2024/02/06 09:51:49;;;;;;;34.33;15.53;;;11.80;91.50;;;;;;812602;174;26502;-78
2024/02/06 09:54:15;;;;;;;14.87;6.20;;;11.80;91.70;;;;;;812528;174;26461;-79
2024/02/06 09:56:42;;;;;;;23.50;9.90;;;11.80;91.90;;;;;;810752;175;26465;-78
2024/02/06 09:59:08;;;;;;;10.33;4.70;;;11.80;91.80;;;;;;811496;173;26431;-78
2024/02/06 10:01:35;;;;;;;15.07;5.47;;;11.70;91.80;;;;;;811236;177;27077;-78
2024/02/06 10:04:02;;;;;;;12.90;5.03;;;11.70;91.90;;;;;;810581;175;26431;-78
2024/02/06 10:06:30;;;;;;;12.60;5.20;;;11.80;92.40;;;;;;807573;175;26486;-78
2024/02/06 10:08:55;;;;;;;10.37;4.50;;;11.70;92.30;;;;;;811088;174;26435;-75
2024/02/06 10:11:22;;;;;;;11.87;5.17;;;11.70;92.40;;;;;;809775;175;26427;-78
2024/02/06 10:13:48;;;;;;;15.70;6.97;;;11.70;92.50;;;;;;808199;171;26489;-78
2024/02/06 10:16:15;;;;;;;15.30;5.70;;;11.70;92.80;;;;;;811115;174;26620;-78
2024/02/06 10:18:52;;;;;;;11.67;5.00;;;11.70;92.60;;;;;;811203;175;26418;-79
2024/02/06 10:21:17;;;;;;;21.50;7.20;;;11.70;92.60;;;;;;810559;175;26418;-78
2024/02/06 10:23:44;;;;;;;24.60;9.13;;;11.80;92.40;;;;;;811475;177;26409;-79
2024/02/06 10:26:10;;;;;;;15.53;6.43;;;11.70;92.50;;;;;;811261;177;26794;-79
2024/02/06 10:28:37;;;;;;;16.20;5.90;;;11.70;92.20;;;;;;810227;174;28104;-77
2024/02/06 10:31:10;;;;;;;12.83;6.90;;;11.70;92.60;;;;;;810131;174;26418;-78
2024/02/06 10:33:36;;;;;;;15.03;6.30;;;11.70;92.20;;;;;;809593;174;26440;-78
2024/02/06 10:36:03;;;;;;;16.57;8.20;;;11.70;92.20;;;;;;810983;175;26454;-78
2024/02/06 10:38:29;;;;;;;16.17;7.23;;;11.70;92.50;;;;;;814433;173;26433;-78
2024/02/06 10:40:56;;;;;;;18.80;7.93;;;11.70;92.70;;;;;;812825;173;26427;-78
2024/02/06 10:43:30;;;;;;;27.10;11.97;;;11.70;92.30;;;;;;810769;171;26418;-77
2024/02/06 10:45:58;;;;;;;16.87;8.23;;;11.80;92.70;;;;;;811723;174;26494;-77
2024/02/06 10:48:25;;;;;;;19.47;7.63;;;11.80;92.10;;;;;;810502;174;26443;-78
2024/02/06 10:50:57;;;;;;;14.30;5.67;;;11.90;92.00;;;;;;812110;171;26438;-78
2024/02/06 10:53:23;;;;;;;15.27;5.17;;;11.80;92.00;;;;;;810282;177;26462;-78
2024/02/06 10:55:50;;;;;;;29.40;13.70;;;11.80;92.00;;;;;;810838;174;26465;-78
2024/02/06 10:58:17;;;;;;;24.73;9.80;;;11.80;92.10;;;;;;809963;171;26999;-77
2024/02/06 11:00:43;;;;;;;26.87;12.73;;;11.80;92.10;;;;;;808685;174;26423;-78
2024/02/06 11:03:10;;;;;;;23.83;12.10;;;11.80;92.10;;;;;;812083;174;26486;-77
2024/02/06 11:05:38;;;;;;;27.70;13.43;;;11.80;92.30;;;;;;808862;173;26986;-78
2024/02/06 11:08:10;;;;;;;22.87;11.20;;;11.80;92.20;;;;;;812171;176;26425;-78
2024/02/06 11:10:37;;;;;;;39.10;16.97;;;11.90;92.30;;;;;;814084;175;26477;-79
2024/02/06 11:13:07;;;;;;;31.87;16.17;;;11.80;92.10;;;;;;811763;175;26419;-78
2024/02/06 11:15:37;;;;;;;42.77;18.97;;;11.80;92.00;;;;;;811943;173;26423;-79
2024/02/06 11:18:03;;;;;;;25.50;11.37;;;11.80;92.30;;;;;;812271;174;26486;-78
2024/02/06 11:20:29;;;;;;;52.60;23.37;;;11.90;92.30;;;;;;812911;174;26553;-79
2024/02/06 11:22:56;;;;;;;78.80;31.67;;;11.90;91.90;;;;;;809280;174;26971;-78
2024/02/06 11:25:27;;;;;;;47.17;22.30;;;12.00;91.90;;;;;;811643;174;26421;-77
2024/02/06 11:27:49;;;;;;;39.60;15.53;;;12.00;91.60;;;;;;811161;177;27043;-77
2024/02/06 11:30:17;;;;;;;94.23;36.90;;;12.10;91.80;;;;;;811316;174;26423;-77
2024/02/06 11:32:44;;;;;;;60.77;27.67;;;12.20;91.30;;;;;;810336;172;26449;-76
2024/02/06 11:35:10;;;;;;;67.50;31.47;;;12.20;91.40;;;;;;810731;174;26422;-77
2024/02/06 11:37:37;;;;;;;36.53;17.30;;;12.20;91.20;;;;;;810250;177;26423;-78
2024/02/06 11:40:10;;;;;;;40.83;18.50;;;12.30;90.90;;;;;;810504;176;26445;-77
2024/02/06 11:42:35;;;;;;;26.67;12.13;;;12.30;90.90;;;;;;811396;175;26422;-78
2024/02/06 11:45:09;;;;;;;16.00;7.40;;;12.30;91.10;;;;;;811822;172;26418;-78
2024/02/06 11:47:35;;;;;;;32.77;15.87;;;12.30;90.90;;;;;;812190;173;26426;-77
2024/02/06 11:50:08;;;;;;;27.37;13.60;;;12.30;90.90;;;;;;814027;173;26418;-77
2024/02/06 11:52:34;;;;;;;38.43;17.07;;;12.30;91.20;;;;;;811913;177;26422;-78
2024/02/06 11:55:01;;;;;;;34.97;17.00;;;12.30;90.90;;;;;;812377;174;26560;-77
2024/02/06 11:57:28;;;;;;;33.60;15.63;;;12.30;91.00;;;;;;811953;174;26572;-78
2024/02/06 11:59:54;;;;;;;18.93;9.23;;;12.30;91.30;;;;;;811874;177;26431;-78
2024/02/06 12:02:21;;;;;;;19.67;8.07;;;12.30;91.00;;;;;;809066;175;26461;-77
2024/02/06 12:04:47;;;;;;;40.30;19.27;;;12.30;91.10;;;;;;810384;174;26434;-78
2024/02/06 12:07:16;;;;;;;33.73;16.77;;;12.40;91.30;;;;;;809577;177;26998;-78
2024/02/06 12:09:42;;;;;;;52.27;25.17;;;12.40;90.90;;;;;;812271;173;26434;-79
2024/02/06 12:12:08;;;;;;;44.67;22.67;;;12.40;91.00;;;;;;811626;175;26422;-78
2024/02/06 12:14:35;;;;;;;27.20;12.40;;;12.40;91.00;;;;;;811676;174;26462;-78
2024/02/06 12:17:01;;;;;;;21.73;10.77;;;12.40;91.00;;;;;;803257;174;26460;-75
2024/02/06 12:19:28;;;;;;;15.47;6.50;;;12.50;91.10;;;;;;774376;184;26515;-80
2024/02/06 12:21:59;;;;;;;25.60;8.77;;;12.50;90.70;;;;;;777187;185;26466;-79
2024/02/06 12:24:26;;;;;;;36.23;16.53;;;12.50;90.70;;;;;;785491;180;26594;-81
2024/02/06 12:26:59;;;;;;;63.97;28.10;;;12.50;90.80;;;;;;793755;180;26436;-80
2024/02/06 12:29:26;;;;;;;25.07;13.53;;;12.40;90.80;;;;;;797495;178;26454;-80
2024/02/06 12:31:52;;;;;;;18.10;9.57;;;12.40;90.90;;;;;;774386;183;26473;-80
2024/02/06 12:34:19;;;;;;;28.50;15.23;;;12.40;90.90;;;;;;767448;185;26476;-79